Azusa, CA (91702)

4:46 AM PDT on September 19, 2014 (GMT -0700)
Mountain Cove Azusa Real Estate | Change Station
CLOSE
Current Station
Personal Weather Station
Location: By Dolf in AZUSA, CA
Elevation: 686 ft
Nearby Weather Stations

Elev 686 ft 34.15 °N, 117.91 °W | Updated 13 seconds ago

Overcast
Overcast
67.0 °F
Feels Like 67.0 °F
N
0.0
Wind Variable Wind from SSW
Gusts 0.0 mph

Today
High -- | Low -- °F
--% Chance of Precip.
Yesterday
High -- | Low -- °F
Precip. -- in
6:37 AM 6:52 PM
Waning Crescent, 19% visible
Pressure 29.84 in
Visibility 10.0 miles
Clouds Overcast 1900 ft
Dew Point 62 °F
Humidity 83%
Rainfall 0.00 in
Snow Depth 0 in , 0 in , 0 in
UV 0.0 out of 12
Pollen 6.90 out of 12
Ozone Good
Flu Activity Not available.
METAR KONT 191053Z 28005KT 10SM OVC019 21/16 A2989 RMK AO2 SLP104 T02060156

More Conditions Fewer Conditions

Pressure 29.84 in
Visibility 10.0 miles
Clouds Overcast 1900 ft
Dew Point 62 °F
Humidity 83%
Rainfall 0.00 in
Snow Depth 0 in , 0 in , 0 in
UV 0.0 out of 12
Pollen 6.90 out of 12
Ozone Good
Flu Activity Not available.
METAR KONT 191053Z 28005KT 10SM OVC019 21/16 A2989 RMK AO2 SLP104 T02060156

More Conditions Fewer Conditions

10-Day Weather Forecast

Almanac

Astronomy

Sep. 19, 2014 Rise Set
Actual Time 6:37 AM PDT 6:52 PM PDT
Civil Twilight 6:12 AM PDT 7:17 PM PDT
Nautical Twilight 5:43 AM PDT 7:46 PM PDT
Astronomical Twilight 5:13 AM PDT 8:16 PM PDT
Moon 2:36 AM PDT 4:16 PM PDT
Length of Visible Light 13h 04m
Length of Day
12h 14m
Tomorrow will be 2m 5s shorter.
Waning Crescent, 19% of the Moon is Illuminated
Today
Waning Crescent
Sep 24
New
Oct 1
First Quarter
Oct 8
Full
Oct 15
Last Quarter

Today's Extremes

State Highs State Lows

Community

WunderPhotos

Upload Photos

1,754,597 photos uploaded!

Nearby

Air Quality

  Air Quality AQ Index Pollutant
Yesterday Good
OZONE
Yesterday Good
PM10
Current Good
OZONE
Friday Good
PM10
Friday Good
OZONE
Friday Good
CO
Friday Good
NO2

Snow Depth

Station Depth Elevation
Independence Camp 0 in 7000 ft
Ebbetts Pass 0 in 8700 ft
Tahoe City Cross 0 in 6750 ft
Squaw Valley 0 in 8200 ft
Sonora Pass 0 in 8800 ft

Earthquake Activity

City Distance Mag. Time & Date
Aguanga, California 79 miles 2.5 1:38 AM PDT
2014-09-19
Corcoran, California 167 miles 3.0 3:59 PM PDT
2014-09-18
La Quinta, California 93 miles 2.7 8:59 PM PDT
2014-09-15
Minimum magnitude displayed is 2.5.

Coastal Water Temperatures

Place Temperature
No Stations Reporting

Nearby Weather Stations